createdAt,value
2023-03-22T00:00:43.025Z,12.55
2023-03-22T00:01:42.994Z,12.68
2023-03-22T00:02:43.021Z,12.57
2023-03-22T00:03:42.991Z,12.61
2023-03-22T00:04:42.902Z,12.65
2023-03-22T00:05:42.868Z,12.60
2023-03-22T00:06:42.812Z,12.58
2023-03-22T00:07:42.772Z,12.65
2023-03-22T00:08:42.740Z,12.62
2023-03-22T00:09:42.705Z,12.62
2023-03-22T00:10:42.670Z,12.64
2023-03-22T00:11:42.641Z,12.57
2023-03-22T00:12:42.598Z,12.58
2023-03-22T00:13:42.563Z,12.61
2023-03-22T00:14:42.530Z,12.61
2023-03-22T00:15:42.529Z,12.68
2023-03-22T00:16:42.471Z,12.61
2023-03-22T00:17:42.452Z,12.65
2023-03-22T00:18:42.389Z,12.57
2023-03-22T00:19:42.349Z,12.60
2023-03-22T00:20:42.325Z,12.61
2023-03-22T00:21:42.288Z,12.60
2023-03-22T00:22:42.252Z,12.64
2023-03-22T00:23:42.282Z,12.68
2023-03-22T00:24:42.191Z,12.70
2023-03-22T00:25:42.145Z,12.61
2023-03-22T00:26:43.065Z,12.70
2023-03-22T00:27:42.070Z,12.72
2023-03-22T00:28:42.044Z,12.72
2023-03-22T00:29:42.045Z,12.64
2023-03-22T00:30:41.974Z,12.65
2023-03-22T00:31:41.982Z,12.64
2023-03-22T00:32:41.902Z,12.70
2023-03-22T00:33:41.899Z,12.64
2023-03-22T00:34:41.831Z,12.68
2023-03-22T00:35:41.818Z,12.68
2023-03-22T00:36:41.780Z,12.75
2023-03-22T00:37:41.728Z,12.64
2023-03-22T00:38:43.463Z,12.75
2023-03-22T00:39:41.664Z,12.72
2023-03-22T00:40:41.637Z,12.73
2023-03-22T00:41:41.590Z,12.70
2023-03-22T00:42:41.559Z,12.78
2023-03-22T00:43:41.522Z,12.67
2023-03-22T00:44:41.484Z,12.72
2023-03-22T00:45:41.457Z,12.67
2023-03-22T00:46:41.418Z,12.78
2023-03-22T00:47:41.438Z,12.75
2023-03-22T00:48:41.346Z,12.76
2023-03-22T00:49:41.310Z,12.78
2023-03-22T00:50:41.275Z,12.80
2023-03-22T00:51:41.238Z,12.75
2023-03-22T00:52:41.204Z,12.79
2023-03-22T00:53:43.040Z,12.82
2023-03-22T00:54:41.153Z,12.76
2023-03-22T00:55:41.104Z,12.85
2023-03-22T00:56:41.062Z,12.76
2023-03-22T00:57:41.031Z,12.79
2023-03-22T00:58:41.060Z,12.78
2023-03-22T00:59:40.966Z,12.78
2023-03-22T01:00:41.290Z,12.82
2023-03-22T01:01:40.893Z,12.86
2023-03-22T01:02:40.854Z,12.82
2023-03-22T01:03:40.878Z,12.86
2023-03-22T01:04:40.791Z,12.85
2023-03-22T01:05:40.746Z,12.86
2023-03-22T01:06:40.724Z,12.83
2023-03-22T01:07:40.676Z,12.90
2023-03-22T01:08:40.648Z,12.91
2023-03-22T01:09:40.612Z,12.87
2023-03-22T01:10:40.914Z,12.80
2023-03-22T01:11:40.537Z,12.80
2023-03-22T01:12:40.505Z,12.80
2023-03-22T01:13:40.469Z,12.78
2023-03-22T01:14:40.435Z,12.76
2023-03-22T01:15:40.395Z,12.82
2023-03-22T01:16:40.381Z,12.75
2023-03-22T01:17:40.338Z,12.76
2023-03-22T01:18:40.305Z,12.72
2023-03-22T01:19:40.261Z,12.76
2023-03-22T01:20:40.498Z,12.76
2023-03-22T01:21:40.192Z,12.75
2023-03-22T01:22:40.162Z,12.75
2023-03-22T01:23:40.118Z,12.80
2023-03-22T01:24:40.093Z,12.70
2023-03-22T01:25:40.048Z,12.76
2023-03-22T01:26:40.019Z,12.78
2023-03-22T01:27:40.012Z,12.73
2023-03-22T01:28:39.948Z,12.76
2023-03-22T01:29:39.909Z,12.67
2023-03-22T01:30:40.100Z,12.72
2023-03-22T01:31:39.845Z,12.73
2023-03-22T01:32:39.836Z,12.70
2023-03-22T01:33:39.779Z,12.70
2023-03-22T01:34:39.738Z,12.64
2023-03-22T01:35:39.792Z,12.64
2023-03-22T01:36:39.666Z,12.64
2023-03-22T01:37:39.631Z,12.57
2023-03-22T01:38:40.588Z,12.64
2023-03-22T01:39:39.562Z,12.64
2023-03-22T01:40:39.862Z,12.61
2023-03-22T01:41:39.502Z,12.62
2023-03-22T01:42:39.462Z,12.64
2023-03-22T01:43:39.425Z,12.53
2023-03-22T01:44:39.392Z,12.60
2023-03-22T01:45:39.359Z,12.61
2023-03-22T01:46:39.368Z,12.62
2023-03-22T01:47:39.286Z,12.58
2023-03-22T01:48:39.298Z,12.53
2023-03-22T01:49:39.223Z,12.50
2023-03-22T01:50:39.545Z,12.53
2023-03-22T01:51:39.147Z,12.50
2023-03-22T01:52:39.137Z,12.49
2023-03-22T01:53:39.080Z,12.49
2023-03-22T01:54:39.040Z,12.45
2023-03-22T01:55:39.006Z,12.53
2023-03-22T01:56:38.974Z,12.50
2023-03-22T01:57:38.932Z,12.54
2023-03-22T01:58:38.906Z,12.54
2023-03-22T01:59:38.872Z,12.39
2023-03-22T02:00:39.090Z,12.45
2023-03-22T02:01:38.847Z,12.39
2023-03-22T02:02:38.798Z,12.36
2023-03-22T02:03:38.722Z,12.37
2023-03-22T02:04:38.693Z,12.39
2023-03-22T02:05:38.654Z,12.37
2023-03-22T02:06:38.629Z,12.36
2023-03-22T02:07:38.583Z,12.40
2023-03-22T02:08:38.558Z,12.42
2023-03-22T02:09:38.510Z,12.40
2023-03-22T02:10:38.691Z,12.43
2023-03-22T02:11:38.440Z,12.40
2023-03-22T02:12:38.407Z,12.42
2023-03-22T02:13:38.375Z,12.31
2023-03-22T02:14:38.349Z,12.31
2023-03-22T02:15:38.374Z,12.25
2023-03-22T02:16:38.272Z,12.29
2023-03-22T02:17:38.228Z,12.27
2023-03-22T02:18:38.193Z,12.32
2023-03-22T02:19:38.162Z,12.35
2023-03-22T02:20:38.558Z,12.22
2023-03-22T02:21:38.105Z,12.29
2023-03-22T02:22:38.055Z,12.21
2023-03-22T02:23:38.016Z,12.27
2023-03-22T02:24:37.983Z,12.25
2023-03-22T02:25:37.956Z,12.28
2023-03-22T02:26:37.914Z,12.20
2023-03-22T02:27:37.885Z,12.21
2023-03-22T02:28:37.840Z,12.20
2023-03-22T02:29:37.804Z,12.17
2023-03-22T02:30:38.291Z,12.21
2023-03-22T02:31:37.823Z,12.20
2023-03-22T02:32:37.700Z,12.18
2023-03-22T02:33:39.807Z,12.18
2023-03-22T02:34:37.628Z,12.18
2023-03-22T02:35:37.619Z,12.18
2023-03-22T02:36:37.563Z,12.17
2023-03-22T02:37:37.526Z,12.17
2023-03-22T02:38:37.486Z,12.18
2023-03-22T02:39:37.461Z,12.17
2023-03-22T02:40:37.759Z,12.17
2023-03-22T02:41:37.377Z,12.15
2023-03-22T02:42:37.350Z,12.22
2023-03-22T02:43:37.309Z,12.15
2023-03-22T02:44:37.276Z,12.13
2023-03-22T02:45:37.248Z,12.17
2023-03-22T02:46:37.271Z,12.21
2023-03-22T02:47:37.166Z,12.03
2023-03-22T02:48:37.165Z,12.07
2023-03-22T02:49:37.093Z,12.15
2023-03-22T02:50:37.296Z,12.06
2023-03-22T02:51:37.024Z,12.06
2023-03-22T02:52:36.988Z,12.09
2023-03-22T02:53:37.032Z,12.06
2023-03-22T02:54:36.919Z,12.04
2023-03-22T02:55:36.884Z,12.06
2023-03-22T02:56:36.853Z,12.07
2023-03-22T02:57:36.814Z,12.03
2023-03-22T02:58:36.781Z,12.10
2023-03-22T02:59:36.743Z,12.00
2023-03-22T03:00:36.889Z,11.97
2023-03-22T03:01:36.719Z,12.06
2023-03-22T03:02:36.644Z,12.04
2023-03-22T03:03:36.598Z,12.06
2023-03-22T03:04:36.564Z,12.00
2023-03-22T03:05:36.543Z,11.99
2023-03-22T03:06:36.493Z,12.02
2023-03-22T03:07:36.457Z,11.90
2023-03-22T03:08:36.430Z,11.90
2023-03-22T03:09:36.396Z,11.94
2023-03-22T03:10:36.349Z,11.97
2023-03-22T03:11:36.316Z,11.91
2023-03-22T03:12:36.277Z,11.87
2023-03-22T03:13:36.245Z,11.87
2023-03-22T03:14:36.209Z,11.90
2023-03-22T03:15:36.171Z,11.84
2023-03-22T03:16:36.160Z,11.86
2023-03-22T03:17:36.133Z,11.73
2023-03-22T03:18:36.067Z,11.78
2023-03-22T03:19:36.030Z,11.77
2023-03-22T03:20:36.006Z,11.80
2023-03-22T03:21:35.964Z,11.75
2023-03-22T03:22:35.928Z,11.75
2023-03-22T03:23:35.890Z,11.83
2023-03-22T03:24:35.863Z,11.80
2023-03-22T03:25:35.828Z,11.80
2023-03-22T03:26:35.781Z,11.77
2023-03-22T03:27:35.749Z,11.78
2023-03-22T03:28:35.714Z,11.80
2023-03-22T03:29:35.675Z,11.80
2023-03-22T03:30:35.640Z,11.69
2023-03-22T03:31:35.614Z,11.70
2023-03-22T03:32:35.577Z,11.73
2023-03-22T03:33:35.535Z,11.66
2023-03-22T03:34:35.499Z,11.70
2023-03-22T03:35:35.501Z,11.75
2023-03-22T03:36:35.436Z,11.70
2023-03-22T03:37:35.388Z,11.75
2023-03-22T03:38:35.367Z,11.72
2023-03-22T03:39:35.340Z,11.69
2023-03-22T03:40:35.331Z,11.60
2023-03-22T03:41:35.254Z,11.62
2023-03-22T03:42:35.222Z,11.69
2023-03-22T03:43:35.180Z,11.69
2023-03-22T03:44:35.145Z,11.65
2023-03-22T03:45:35.159Z,11.66
2023-03-22T03:46:35.076Z,11.63
2023-03-22T03:47:35.035Z,11.60
2023-03-22T03:48:35.006Z,11.62
2023-03-22T03:49:34.968Z,11.63
2023-03-22T03:50:34.931Z,11.68
2023-03-22T03:51:34.894Z,11.60
2023-03-22T03:52:34.861Z,11.63
2023-03-22T03:53:34.827Z,11.59
2023-03-22T03:54:34.792Z,11.63
2023-03-22T03:55:34.760Z,11.59
2023-03-22T03:56:34.718Z,11.60
2023-03-22T03:57:34.687Z,11.63
2023-03-22T03:58:34.643Z,11.59
2023-03-22T03:59:34.619Z,11.59
2023-03-22T04:00:34.579Z,11.60
2023-03-22T04:01:34.541Z,11.65
2023-03-22T04:02:34.537Z,11.63
2023-03-22T04:03:34.470Z,11.52
2023-03-22T04:04:34.472Z,11.63
2023-03-22T04:05:34.405Z,11.60
2023-03-22T04:06:34.361Z,11.63
2023-03-22T04:07:34.330Z,11.57
2023-03-22T04:08:34.289Z,11.54
2023-03-22T04:09:34.253Z,11.54
2023-03-22T04:10:34.227Z,11.52
2023-03-22T04:11:34.219Z,11.57
2023-03-22T04:12:34.153Z,11.57
2023-03-22T04:13:34.118Z,11.54
2023-03-22T04:14:34.076Z,11.55
2023-03-22T04:15:34.039Z,11.51
2023-03-22T04:16:34.027Z,11.55
2023-03-22T04:17:34.620Z,11.47
2023-03-22T04:18:33.945Z,11.57
2023-03-22T04:19:33.903Z,11.48
2023-03-22T04:20:33.869Z,11.51
2023-03-22T04:21:33.826Z,11.52
2023-03-22T04:22:33.798Z,11.47
2023-03-22T04:23:33.755Z,11.44
2023-03-22T04:24:33.721Z,11.43
2023-03-22T04:25:33.698Z,11.41
2023-03-22T04:26:33.655Z,11.44
2023-03-22T04:27:33.611Z,11.44
2023-03-22T04:28:33.575Z,11.45
2023-03-22T04:29:33.548Z,11.45
2023-03-22T04:30:33.507Z,11.44
2023-03-22T04:31:33.496Z,11.47
2023-03-22T04:32:33.446Z,11.37
2023-03-22T04:33:33.421Z,11.33
2023-03-22T04:34:33.370Z,11.26
2023-03-22T04:35:33.365Z,11.30
2023-03-22T04:36:33.293Z,11.27
2023-03-22T04:37:33.252Z,11.36
2023-03-22T04:38:33.223Z,11.29
2023-03-22T04:39:33.183Z,11.35
2023-03-22T04:40:33.144Z,11.25
2023-03-22T04:41:33.133Z,11.36
2023-03-22T04:42:33.115Z,11.27
2023-03-22T04:43:33.038Z,11.22
2023-03-22T04:44:33.004Z,11.25
2023-03-22T04:45:32.973Z,11.15
2023-03-22T04:46:32.968Z,11.18
2023-03-22T04:47:32.904Z,11.19
2023-03-22T04:48:32.861Z,11.22
2023-03-22T04:49:32.823Z,11.19
2023-03-22T04:50:32.790Z,11.08
2023-03-22T04:51:32.757Z,11.10
2023-03-22T04:52:32.718Z,11.12
2023-03-22T04:53:32.683Z,11.05
2023-03-22T04:54:32.648Z,11.15
2023-03-22T04:55:32.638Z,11.14
2023-03-22T04:56:32.576Z,11.10
2023-03-22T04:57:32.540Z,11.08
2023-03-22T04:58:32.509Z,11.11
2023-03-22T04:59:32.462Z,10.97
2023-03-22T05:00:32.428Z,11.05
2023-03-22T05:01:32.458Z,11.05
2023-03-22T05:02:32.447Z,11.02
2023-03-22T05:03:32.322Z,11.08
2023-03-22T05:04:32.310Z,10.96
2023-03-22T05:05:32.249Z,11.00
2023-03-22T05:06:32.217Z,11.04
2023-03-22T05:07:32.303Z,10.99
2023-03-22T05:08:32.149Z,11.12
2023-03-22T05:09:32.113Z,11.04
2023-03-22T05:10:32.069Z,11.05
2023-03-22T05:11:32.032Z,11.00
2023-03-22T05:12:32.003Z,11.07
2023-03-22T05:13:31.959Z,11.07
2023-03-22T05:14:32.027Z,11.00
2023-03-22T05:15:31.893Z,11.08
2023-03-22T05:16:31.912Z,11.00
2023-03-22T05:17:31.836Z,10.97
2023-03-22T05:18:31.781Z,10.99
2023-03-22T05:19:31.742Z,10.94
2023-03-22T05:20:31.741Z,10.99
2023-03-22T05:21:31.672Z,10.90
2023-03-22T05:22:31.639Z,11.00
2023-03-22T05:23:31.608Z,10.87
2023-03-22T05:24:31.567Z,10.87
2023-03-22T05:25:31.530Z,10.82
2023-03-22T05:26:31.502Z,10.87
2023-03-22T05:27:31.802Z,10.92
2023-03-22T05:28:31.420Z,10.89
2023-03-22T05:29:31.386Z,10.87
2023-03-22T05:30:31.357Z,10.93
2023-03-22T05:31:31.357Z,10.93
2023-03-22T05:32:31.277Z,10.92
2023-03-22T05:33:31.240Z,10.94
2023-03-22T05:34:31.211Z,10.86
2023-03-22T05:35:31.215Z,10.90
2023-03-22T05:36:31.140Z,10.90
2023-03-22T05:37:31.100Z,10.86
2023-03-22T05:38:31.064Z,10.89
2023-03-22T05:39:31.026Z,10.92
2023-03-22T05:40:30.997Z,10.92
2023-03-22T05:41:30.960Z,10.92
2023-03-22T05:42:30.926Z,10.89
2023-03-22T05:43:30.882Z,10.93
2023-03-22T05:44:30.848Z,10.92
2023-03-22T05:45:30.814Z,10.92
2023-03-22T05:46:30.827Z,10.89
2023-03-22T05:47:30.738Z,10.86
2023-03-22T05:48:30.741Z,10.93
2023-03-22T05:49:30.674Z,10.94
2023-03-22T05:50:30.642Z,10.92
2023-03-22T05:51:30.612Z,10.96
2023-03-22T05:52:30.561Z,10.92
2023-03-22T05:53:30.524Z,11.02
2023-03-22T05:54:30.493Z,11.05
2023-03-22T05:55:30.460Z,11.07
2023-03-22T05:56:30.425Z,11.08
2023-03-22T05:57:30.386Z,11.08
2023-03-22T05:58:30.346Z,11.08
2023-03-22T05:59:30.309Z,11.10
2023-03-22T06:00:30.275Z,11.07
2023-03-22T06:01:30.238Z,11.12
2023-03-22T06:02:30.212Z,11.18
2023-03-22T06:03:30.236Z,11.15
2023-03-22T06:04:30.129Z,11.17
2023-03-22T06:05:30.096Z,11.17
2023-03-22T06:06:30.058Z,11.19
2023-03-22T06:07:30.022Z,11.25
2023-03-22T06:08:29.985Z,11.18
2023-03-22T06:09:29.964Z,11.25
2023-03-22T06:10:29.925Z,11.32
2023-03-22T06:11:29.879Z,11.30
2023-03-22T06:12:30.286Z,11.37
2023-03-22T06:13:29.864Z,11.32
2023-03-22T06:14:29.776Z,11.35
2023-03-22T06:15:30.654Z,11.43
2023-03-22T06:16:29.767Z,11.43
2023-03-22T06:17:29.672Z,11.48
2023-03-22T06:18:29.663Z,11.50
2023-03-22T06:19:29.591Z,11.50
2023-03-22T06:20:29.559Z,11.63
2023-03-22T06:21:29.526Z,11.60
2023-03-22T06:22:29.485Z,11.63
2023-03-22T06:23:29.461Z,11.65
2023-03-22T06:24:29.417Z,11.73
2023-03-22T06:25:29.384Z,11.72
2023-03-22T06:26:29.358Z,11.72
2023-03-22T06:27:29.308Z,11.66
2023-03-22T06:28:29.278Z,11.75
2023-03-22T06:29:29.231Z,11.81
2023-03-22T06:30:29.232Z,11.90
2023-03-22T06:31:29.166Z,11.86
2023-03-22T06:32:29.124Z,11.99
2023-03-22T06:33:29.088Z,11.95
2023-03-22T06:34:29.053Z,11.99
2023-03-22T06:35:29.022Z,12.02
2023-03-22T06:36:28.977Z,12.03
2023-03-22T06:37:28.941Z,11.95
2023-03-22T06:38:28.912Z,12.07
2023-03-22T06:39:28.868Z,11.97
2023-03-22T06:40:28.834Z,12.03
2023-03-22T06:41:28.800Z,12.10
2023-03-22T06:42:28.767Z,12.10
2023-03-22T06:43:28.730Z,12.17
2023-03-22T06:44:28.705Z,12.22
2023-03-22T06:45:28.660Z,12.17
2023-03-22T06:46:28.661Z,12.22
2023-03-22T06:47:28.588Z,12.31
2023-03-22T06:48:28.653Z,12.27
2023-03-22T06:49:28.514Z,12.31
2023-03-22T06:50:28.483Z,12.36
2023-03-22T06:51:28.450Z,12.50
2023-03-22T06:52:28.413Z,12.39
2023-03-22T06:53:28.375Z,12.50
2023-03-22T06:54:28.338Z,12.50
2023-03-22T06:55:28.313Z,12.57
2023-03-22T06:56:28.262Z,12.54
2023-03-22T06:57:28.227Z,12.47
2023-03-22T06:58:28.193Z,12.53
2023-03-22T06:59:28.160Z,12.68
2023-03-22T07:00:28.121Z,12.64
2023-03-22T07:01:28.137Z,12.58
2023-03-22T07:02:28.066Z,12.68
2023-03-22T07:03:28.027Z,12.75
2023-03-22T07:04:28.136Z,12.79
2023-03-22T07:05:27.967Z,12.78
2023-03-22T07:06:27.941Z,12.90
2023-03-22T07:07:27.958Z,12.87
2023-03-22T07:08:27.844Z,12.90
2023-03-22T07:09:27.817Z,13.00
2023-03-22T07:10:27.775Z,12.97
2023-03-22T07:11:27.736Z,13.11
2023-03-22T07:12:27.702Z,13.12
2023-03-22T07:13:27.670Z,13.11
2023-03-22T07:14:27.636Z,13.18
2023-03-22T07:15:27.601Z,13.20
2023-03-22T07:16:27.647Z,13.22
2023-03-22T07:17:27.533Z,13.23
2023-03-22T07:18:27.493Z,13.20
2023-03-22T07:19:27.469Z,13.28
2023-03-22T07:20:27.420Z,13.30
2023-03-22T07:21:27.404Z,13.33
2023-03-22T07:22:27.371Z,13.38
2023-03-22T07:23:27.317Z,13.41
2023-03-22T07:24:27.297Z,13.50
2023-03-22T07:25:27.260Z,13.50
2023-03-22T07:26:27.216Z,13.49
2023-03-22T07:27:27.179Z,13.54
2023-03-22T07:28:27.156Z,13.57
2023-03-22T07:29:27.124Z,13.52
2023-03-22T07:30:27.073Z,13.56
2023-03-22T07:31:27.037Z,13.50
2023-03-22T07:32:27.082Z,13.47
2023-03-22T07:33:26.968Z,13.56
2023-03-22T07:34:26.934Z,13.42
2023-03-22T07:35:27.130Z,13.53
2023-03-22T07:36:26.873Z,13.57
2023-03-22T07:37:26.838Z,13.54
2023-03-22T07:38:26.804Z,13.52
2023-03-22T07:39:26.764Z,13.54
2023-03-22T07:40:26.758Z,13.54
2023-03-22T07:41:26.713Z,13.63
2023-03-22T07:42:26.930Z,13.63
2023-03-22T07:43:26.629Z,13.62
2023-03-22T07:44:26.600Z,13.65
2023-03-22T07:45:26.596Z,13.65
2023-03-22T07:46:26.568Z,13.60
2023-03-22T07:47:39.876Z,13.60
2023-03-22T07:48:26.507Z,13.57
2023-03-22T07:49:26.422Z,13.56
2023-03-22T07:50:26.418Z,13.60
2023-03-22T07:51:26.349Z,13.60
2023-03-22T07:52:26.343Z,13.62
2023-03-22T07:53:26.302Z,13.60
2023-03-22T07:54:33.558Z,13.60
2023-03-22T07:55:26.216Z,13.67
2023-03-22T07:56:26.185Z,13.60
2023-03-22T07:57:26.146Z,13.70
2023-03-22T07:58:26.279Z,13.74
2023-03-22T07:59:26.080Z,13.74
2023-03-22T08:00:26.053Z,13.78
2023-03-22T08:01:26.012Z,13.77
2023-03-22T08:02:25.994Z,13.90
2023-03-22T08:03:25.984Z,13.92
2023-03-22T08:04:25.928Z,13.87
2023-03-22T08:05:25.881Z,13.96
2023-03-22T08:06:25.839Z,13.95
2023-03-22T08:07:25.799Z,13.92
2023-03-22T08:08:26.683Z,13.96
2023-03-22T08:09:25.792Z,13.99
2023-03-22T08:10:25.706Z,13.87
2023-03-22T08:11:25.662Z,14.03
2023-03-22T08:12:25.631Z,13.99
2023-03-22T08:13:25.601Z,14.05
2023-03-22T08:14:35.894Z,14.10
2023-03-22T08:15:25.538Z,14.15
2023-03-22T08:16:25.527Z,14.18
2023-03-22T08:17:25.453Z,14.03
2023-03-22T08:18:25.428Z,14.10
2023-03-22T08:19:25.390Z,14.08
2023-03-22T08:20:25.355Z,14.10
2023-03-22T08:21:25.316Z,14.17
2023-03-22T08:22:25.301Z,14.03
2023-03-22T08:23:38.410Z,14.14
2023-03-22T08:24:25.243Z,14.12
2023-03-22T08:25:25.379Z,14.18
2023-03-22T08:26:25.148Z,14.11
2023-03-22T08:27:25.119Z,14.14
2023-03-22T08:28:25.077Z,14.12
2023-03-22T08:29:25.052Z,14.22
2023-03-22T08:30:25.010Z,14.08
2023-03-22T08:31:25.044Z,14.14
2023-03-22T08:32:24.950Z,14.12
2023-03-22T08:33:24.909Z,14.18
2023-03-22T08:34:24.870Z,14.29
2023-03-22T08:35:24.855Z,14.30
2023-03-22T08:36:24.809Z,14.40
2023-03-22T08:37:24.770Z,14.47
2023-03-22T08:38:24.741Z,14.44
2023-03-22T08:39:24.969Z,14.51
2023-03-22T08:40:24.798Z,14.54
2023-03-22T08:41:24.637Z,14.55
2023-03-22T08:42:24.599Z,14.59
2023-03-22T08:43:24.561Z,14.58
2023-03-22T08:44:24.545Z,14.51
2023-03-22T08:45:24.512Z,14.48
2023-03-22T08:46:24.503Z,14.54
2023-03-22T08:47:24.430Z,14.60
2023-03-22T08:48:24.445Z,14.60
2023-03-22T08:49:24.360Z,14.63
2023-03-22T08:50:24.333Z,14.55
2023-03-22T08:51:24.302Z,14.51
2023-03-22T08:52:24.261Z,14.59
2023-03-22T08:53:24.261Z,14.70
2023-03-22T08:54:24.185Z,14.68
2023-03-22T08:55:24.171Z,14.59
2023-03-22T08:56:24.118Z,14.69
2023-03-22T08:57:24.083Z,14.63
2023-03-22T08:58:24.063Z,14.65
2023-03-22T08:59:24.011Z,14.54
2023-03-22T09:00:23.985Z,14.60
2023-03-22T09:01:24.098Z,14.73
2023-03-22T09:02:23.954Z,14.65
2023-03-22T09:03:23.877Z,14.73
2023-03-22T09:04:24.009Z,14.73
2023-03-22T09:05:23.817Z,14.77
2023-03-22T09:06:23.807Z,14.68
2023-03-22T09:07:23.762Z,14.77
2023-03-22T09:08:23.729Z,14.72
2023-03-22T09:09:23.674Z,14.78
2023-03-22T09:10:23.654Z,14.78
2023-03-22T09:11:23.610Z,14.78
2023-03-22T09:12:23.578Z,14.79
2023-03-22T09:13:23.535Z,14.78
2023-03-22T09:14:23.530Z,14.81
2023-03-22T09:15:23.477Z,14.86
2023-03-22T09:16:23.480Z,14.88
2023-03-22T09:17:23.412Z,14.96
2023-03-22T09:18:23.370Z,14.97
2023-03-22T09:19:23.342Z,14.96
2023-03-22T09:20:23.318Z,14.91
2023-03-22T09:21:23.266Z,14.88
2023-03-22T09:22:23.247Z,14.73
2023-03-22T09:23:23.210Z,14.73
2023-03-22T09:24:23.176Z,14.88
2023-03-22T09:25:23.135Z,14.92
2023-03-22T09:26:23.104Z,15.00
2023-03-22T09:27:23.069Z,15.02
2023-03-22T09:28:23.066Z,15.06
2023-03-22T09:29:22.996Z,15.06
2023-03-22T09:30:23.080Z,15.06
2023-03-22T09:31:22.955Z,15.06
2023-03-22T09:32:22.898Z,15.11
2023-03-22T09:33:22.882Z,15.10
2023-03-22T09:34:22.832Z,15.10
2023-03-22T09:35:22.818Z,15.06
2023-03-22T09:36:22.765Z,15.02
2023-03-22T09:37:22.733Z,15.04
2023-03-22T09:38:22.693Z,15.14
2023-03-22T09:39:22.665Z,15.10
2023-03-22T09:40:22.752Z,15.10
2023-03-22T09:41:22.632Z,15.28
2023-03-22T09:42:22.560Z,15.27
2023-03-22T09:43:22.530Z,15.31
2023-03-22T09:44:22.493Z,15.40
2023-03-22T09:45:22.465Z,15.35
2023-03-22T09:46:22.677Z,15.22
2023-03-22T09:47:22.400Z,15.29
2023-03-22T09:48:22.446Z,15.27
2023-03-22T09:49:22.335Z,15.22
2023-03-22T09:50:22.412Z,15.11
2023-03-22T09:51:22.262Z,15.24
2023-03-22T09:52:22.278Z,15.09
2023-03-22T09:53:22.188Z,15.17
2023-03-22T09:54:22.156Z,15.28
2023-03-22T09:55:22.130Z,15.43
2023-03-22T09:56:22.098Z,15.47
2023-03-22T09:57:22.053Z,15.44
2023-03-22T09:58:22.051Z,15.44
2023-03-22T09:59:22.016Z,15.40
2023-03-22T10:00:22.102Z,15.44
2023-03-22T10:01:22.202Z,15.40
2023-03-22T10:02:21.958Z,15.39
2023-03-22T10:03:21.872Z,15.42
2023-03-22T10:04:21.871Z,15.43
2023-03-22T10:05:21.815Z,15.42
2023-03-22T10:06:21.762Z,15.64
2023-03-22T10:07:21.732Z,15.61
2023-03-22T10:08:21.714Z,15.55
2023-03-22T10:09:21.656Z,15.57
2023-03-22T10:10:21.620Z,15.54
2023-03-22T10:11:21.587Z,15.62
2023-03-22T10:12:21.555Z,15.52
2023-03-22T10:13:21.531Z,15.62
2023-03-22T10:14:21.489Z,15.58
2023-03-22T10:15:21.460Z,15.52
2023-03-22T10:16:21.450Z,15.68
2023-03-22T10:17:21.389Z,15.64
2023-03-22T10:18:21.353Z,15.62
2023-03-22T10:19:21.324Z,15.76
2023-03-22T10:20:21.292Z,15.72
2023-03-22T10:21:21.280Z,15.61
2023-03-22T10:22:21.220Z,15.75
2023-03-22T10:23:21.192Z,15.80
2023-03-22T10:24:21.157Z,15.88
2023-03-22T10:25:21.131Z,15.83
2023-03-22T10:26:21.098Z,15.94
2023-03-22T10:27:21.051Z,15.90
2023-03-22T10:28:21.044Z,15.95
2023-03-22T10:29:20.997Z,15.92
2023-03-22T10:30:20.968Z,15.84
2023-03-22T10:31:20.940Z,15.83
2023-03-22T10:32:20.889Z,15.76
2023-03-22T10:33:20.854Z,15.80
2023-03-22T10:34:20.827Z,15.76
2023-03-22T10:35:20.818Z,15.84
2023-03-22T10:36:20.776Z,15.86
2023-03-22T10:37:20.857Z,15.79
2023-03-22T10:38:20.691Z,15.65
2023-03-22T10:39:20.658Z,15.73
2023-03-22T10:40:20.631Z,15.62
2023-03-22T10:41:20.602Z,15.58
2023-03-22T10:42:20.568Z,15.61
2023-03-22T10:43:20.546Z,15.61
2023-03-22T10:44:20.497Z,15.62
2023-03-22T10:45:20.460Z,15.51
2023-03-22T10:46:20.463Z,15.64
2023-03-22T10:47:20.396Z,15.52
2023-03-22T10:48:20.441Z,15.47
2023-03-22T10:49:20.326Z,15.44
2023-03-22T10:50:20.293Z,15.46
2023-03-22T10:51:20.259Z,15.39
2023-03-22T10:52:20.225Z,15.28
2023-03-22T10:53:20.326Z,15.37
2023-03-22T10:54:20.167Z,15.31
2023-03-22T10:55:20.161Z,15.35
2023-03-22T10:56:20.100Z,15.43
2023-03-22T10:57:20.069Z,15.43
2023-03-22T10:58:20.033Z,15.37
2023-03-22T10:59:20.001Z,15.44
2023-03-22T11:00:19.980Z,15.43
2023-03-22T11:01:20.800Z,15.35
2023-03-22T11:02:19.985Z,15.40
2023-03-22T11:03:19.864Z,15.40
2023-03-22T11:04:19.837Z,15.47
2023-03-22T11:05:19.803Z,15.47
2023-03-22T11:06:19.778Z,15.52
2023-03-22T11:07:19.753Z,15.55
2023-03-22T11:08:19.701Z,15.52
2023-03-22T11:09:19.675Z,15.61
2023-03-22T11:10:19.678Z,15.58
2023-03-22T11:11:19.610Z,15.62
2023-03-22T11:12:19.576Z,15.65
2023-03-22T11:13:19.537Z,15.44
2023-03-22T11:14:19.501Z,15.46
2023-03-22T11:15:19.524Z,15.44
2023-03-22T11:16:19.439Z,15.44
2023-03-22T11:17:19.398Z,15.43
2023-03-22T11:18:19.364Z,15.40
2023-03-22T11:19:19.335Z,15.37
2023-03-22T11:20:19.329Z,15.28
2023-03-22T11:21:19.272Z,15.24
2023-03-22T11:22:19.244Z,15.27
2023-03-22T11:23:19.204Z,15.27
2023-03-22T11:24:19.249Z,15.31
2023-03-22T11:25:19.133Z,15.35
2023-03-22T11:26:19.106Z,15.39
2023-03-22T11:27:19.069Z,15.46
2023-03-22T11:28:19.050Z,15.51
2023-03-22T11:29:19.023Z,15.39
2023-03-22T11:30:18.966Z,15.28
2023-03-22T11:31:19.007Z,15.46
2023-03-22T11:32:18.979Z,15.52
2023-03-22T11:33:18.866Z,15.46
2023-03-22T11:34:18.825Z,15.46
2023-03-22T11:35:18.803Z,15.42
2023-03-22T11:36:18.765Z,15.57
2023-03-22T11:37:18.737Z,15.51
2023-03-22T11:38:19.036Z,15.51
2023-03-22T11:39:18.666Z,15.46
2023-03-22T11:40:18.631Z,15.43
2023-03-22T11:41:18.602Z,15.46
2023-03-22T11:42:18.566Z,15.37
2023-03-22T11:43:18.579Z,15.33
2023-03-22T11:44:18.500Z,15.37
2023-03-22T11:45:18.492Z,15.29
2023-03-22T11:46:18.469Z,15.25
2023-03-22T11:47:18.399Z,15.25
2023-03-22T11:48:18.568Z,15.21
2023-03-22T11:49:18.333Z,15.25
2023-03-22T11:50:18.297Z,15.27
2023-03-22T11:51:18.259Z,15.35
2023-03-22T11:52:18.232Z,15.39
2023-03-22T11:53:18.264Z,15.36
2023-03-22T11:54:18.166Z,15.44
2023-03-22T11:55:18.144Z,15.42
2023-03-22T11:56:18.166Z,15.28
2023-03-22T11:57:18.109Z,15.28
2023-03-22T11:58:18.035Z,15.27
2023-03-22T11:59:18.004Z,15.22
2023-03-22T12:00:17.969Z,15.18
2023-03-22T12:01:17.942Z,15.11
2023-03-22T12:02:17.956Z,15.03
2023-03-22T12:03:18.011Z,15.07
2023-03-22T12:04:17.890Z,15.07
2023-03-22T12:05:17.835Z,15.21
2023-03-22T12:06:17.812Z,15.11
2023-03-22T12:07:17.735Z,15.17
2023-03-22T12:08:17.697Z,15.11
2023-03-22T12:09:17.673Z,15.03
2023-03-22T12:10:17.626Z,15.06
2023-03-22T12:11:17.585Z,15.11
2023-03-22T12:12:17.560Z,14.99
2023-03-22T12:13:17.545Z,14.99
2023-03-22T12:14:17.498Z,14.94
2023-03-22T12:15:17.461Z,14.97
2023-03-22T12:16:17.561Z,14.94
2023-03-22T12:17:17.389Z,14.97
2023-03-22T12:18:17.429Z,14.96
2023-03-22T12:19:17.323Z,15.03
2023-03-22T12:20:17.306Z,14.99
2023-03-22T12:21:17.252Z,14.99
2023-03-22T12:22:17.228Z,15.04
2023-03-22T12:23:17.204Z,15.11
2023-03-22T12:24:17.152Z,15.09
2023-03-22T12:25:17.635Z,15.11
2023-03-22T12:26:17.093Z,15.28
2023-03-22T12:27:17.062Z,15.21
2023-03-22T12:28:17.042Z,15.15
2023-03-22T12:29:16.993Z,15.11
2023-03-22T12:30:16.953Z,15.15
2023-03-22T12:31:16.972Z,15.03
2023-03-22T12:32:16.892Z,15.19
2023-03-22T12:33:16.898Z,15.14
2023-03-22T12:34:16.857Z,15.02
2023-03-22T12:35:17.946Z,15.07
2023-03-22T12:36:16.771Z,15.14
2023-03-22T12:37:16.727Z,15.10
2023-03-22T12:38:16.712Z,15.18
2023-03-22T12:39:16.651Z,15.18
2023-03-22T12:40:16.620Z,15.21
2023-03-22T12:41:16.591Z,15.18
2023-03-22T12:42:16.557Z,15.22
2023-03-22T12:43:16.529Z,15.28
2023-03-22T12:44:16.513Z,15.25
2023-03-22T12:45:16.465Z,15.27
2023-03-22T12:46:16.511Z,15.40
2023-03-22T12:47:16.457Z,15.27
2023-03-22T12:48:16.450Z,15.27
2023-03-22T12:49:16.326Z,15.35
2023-03-22T12:50:16.293Z,15.47
2023-03-22T12:51:16.263Z,15.40
2023-03-22T12:52:16.232Z,15.37